Time;durP1;ratioP1;P1;durP2;ratioP2;P2;SDS_P1;SDS_P2;PMS_P1;PMS_P2;Temp;Humidity;BMP_temperature;BMP_pressure;BME280_temperature;BME280_humidity;BME280_pressure;Samples;Min_cycle;Max_cycle;Signal;HPM_P1;HPM_P2
2024/01/22 00:00:25;;;;;;;4.25;2.10;;;6.10;99.90;;;;;;7340639;32;20230;-56
2024/01/22 00:04:27;;;;;;;4.82;1.62;;;6.00;99.90;;;;;;7340660;32;20115;-55
2024/01/22 00:08:29;;;;;;;8.32;1.50;;;6.00;99.90;;;;;;7338722;32;20164;-56
2024/01/22 00:12:30;;;;;;;4.00;1.55;;;6.00;99.90;;;;;;7347067;32;20148;-55
2024/01/22 00:16:37;;;;;;;2.92;1.40;;;6.00;99.90;;;;;;7344783;32;20119;-54
2024/01/22 00:20:38;;;;;;;3.53;1.67;;;6.10;99.90;;;;;;7343129;32;20103;-56
2024/01/22 00:24:40;;;;;;;2.70;1.60;;;6.20;99.90;;;;;;7341858;32;20244;-54
2024/01/22 00:28:42;;;;;;;2.83;1.58;;;6.20;99.90;;;;;;7338643;32;20186;-55
2024/01/22 00:32:44;;;;;;;2.70;1.50;;;6.30;99.90;;;;;;7343889;32;20163;-56
2024/01/22 00:36:46;;;;;;;3.62;1.60;;;6.40;99.90;;;;;;7337935;32;20099;-54
2024/01/22 00:40:48;;;;;;;2.58;1.70;;;6.50;99.90;;;;;;7345280;32;20192;-55
2024/01/22 00:44:49;;;;;;;5.07;1.60;;;6.50;99.90;;;;;;7341177;32;20559;-55
2024/01/22 00:48:51;;;;;;;4.05;1.37;;;6.60;99.90;;;;;;7338137;32;20143;-54
2024/01/22 00:52:53;;;;;;;4.00;1.33;;;6.70;99.90;;;;;;7344467;32;20156;-55
2024/01/22 00:56:56;;;;;;;3.78;1.50;;;6.70;99.90;;;;;;7343131;32;20268;-56
2024/01/22 01:00:58;;;;;;;1.73;1.00;;;6.70;99.90;;;;;;7335249;32;20917;-55
2024/01/22 01:05:00;;;;;;;2.60;1.45;;;6.70;99.90;;;;;;7348441;32;20126;-54
2024/01/22 01:09:02;;;;;;;4.60;1.50;;;6.80;99.90;;;;;;7335375;32;20107;-55
2024/01/22 01:13:04;;;;;;;2.00;1.05;;;6.80;99.90;;;;;;7339971;32;20110;-55
2024/01/22 01:17:06;;;;;;;1.90;1.20;;;6.80;99.90;;;;;;7343854;32;20111;-56
2024/01/22 01:21:07;;;;;;;2.55;1.50;;;6.90;99.90;;;;;;7340888;32;20517;-56
2024/01/22 01:25:09;;;;;;;4.00;1.40;;;6.90;99.90;;;;;;7336073;32;20130;-54
2024/01/22 01:29:11;;;;;;;3.58;1.10;;;6.90;99.90;;;;;;7336763;32;20577;-56
2024/01/22 01:33:13;;;;;;;4.68;1.23;;;7.00;99.90;;;;;;7339202;32;20115;-55
2024/01/22 01:37:15;;;;;;;2.75;1.37;;;7.00;99.90;;;;;;7336563;32;20186;-57
2024/01/22 01:41:17;;;;;;;2.72;1.10;;;7.00;99.90;;;;;;7339588;32;20225;-56
2024/01/22 01:45:19;;;;;;;4.93;1.40;;;7.00;99.90;;;;;;7340252;32;20324;-56
2024/01/22 01:49:21;;;;;;;2.95;1.17;;;7.10;99.90;;;;;;7334085;32;20139;-56
2024/01/22 01:53:26;;;;;;;3.12;1.50;;;7.20;99.90;;;;;;7338972;32;20137;-56
2024/01/22 01:57:29;;;;;;;3.67;1.15;;;7.10;99.90;;;;;;7334867;32;20133;-57
2024/01/22 02:01:31;;;;;;;3.50;1.50;;;7.20;99.90;;;;;;7322768;32;20138;-57
2024/01/22 02:05:33;;;;;;;3.47;0.90;;;7.30;99.90;;;;;;7351758;32;20179;-56
2024/01/22 02:09:46;;;;;;;2.90;0.95;;;7.30;99.90;;;;;;7352092;32;20133;-56
2024/01/22 02:13:48;;;;;;;4.97;1.15;;;7.40;99.90;;;;;;7339238;32;20230;-58
2024/01/22 02:17:50;;;;;;;2.08;1.00;;;7.40;99.90;;;;;;7355395;32;20135;-56
2024/01/22 02:21:52;;;;;;;1.65;1.10;;;7.50;99.90;;;;;;7340053;32;20219;-55
2024/01/22 02:25:54;;;;;;;1.60;0.80;;;7.60;99.90;;;;;;7354638;32;20095;-55
2024/01/22 02:29:56;;;;;;;2.85;0.88;;;7.70;99.90;;;;;;7356433;32;20161;-55
2024/01/22 02:33:57;;;;;;;1.62;0.95;;;7.70;99.90;;;;;;7350807;32;20564;-55
2024/01/22 02:37:59;;;;;;;2.08;0.90;;;7.70;99.90;;;;;;7351148;32;20292;-55
2024/01/22 02:42:02;;;;;;;1.45;0.80;;;7.80;99.90;;;;;;7337391;32;20178;-55
2024/01/22 02:46:04;;;;;;;2.97;1.33;;;7.90;99.90;;;;;;7349076;32;20111;-55
2024/01/22 02:50:06;;;;;;;2.12;0.68;;;7.90;99.90;;;;;;7355607;32;20106;-56
2024/01/22 02:54:08;;;;;;;3.12;0.90;;;7.90;99.90;;;;;;7350391;32;20201;-56
2024/01/22 02:58:10;;;;;;;2.78;0.77;;;7.90;99.90;;;;;;7351402;32;20121;-56
2024/01/22 03:02:12;;;;;;;3.20;1.00;;;7.90;99.90;;;;;;7352587;32;20384;-55
2024/01/22 03:06:14;;;;;;;3.92;0.90;;;8.00;99.90;;;;;;7354946;32;20106;-56
2024/01/22 03:10:16;;;;;;;1.02;0.60;;;8.10;99.90;;;;;;7358186;32;20138;-56
2024/01/22 03:14:18;;;;;;;2.17;0.80;;;8.10;99.90;;;;;;7349829;32;20142;-55
2024/01/22 03:18:20;;;;;;;4.20;0.80;;;8.20;99.90;;;;;;7348026;32;20607;-56
2024/01/22 03:22:22;;;;;;;1.48;0.70;;;8.20;99.90;;;;;;7346216;32;20154;-55
2024/01/22 03:26:24;;;;;;;0.70;0.52;;;8.20;99.90;;;;;;7345996;32;20122;-56
2024/01/22 03:30:26;;;;;;;1.15;0.70;;;8.20;99.90;;;;;;7351982;32;20099;-56
2024/01/22 03:34:28;;;;;;;2.53;0.70;;;8.30;99.90;;;;;;7338443;32;20234;-56
2024/01/22 03:38:29;;;;;;;1.30;0.80;;;8.20;99.90;;;;;;7345929;32;20208;-56
2024/01/22 03:42:32;;;;;;;1.52;0.52;;;8.20;99.90;;;;;;7348519;32;20531;-56
2024/01/22 03:46:34;;;;;;;1.83;0.60;;;8.30;99.90;;;;;;7345005;32;20214;-55
2024/01/22 03:50:36;;;;;;;4.60;1.10;;;8.20;99.90;;;;;;7350168;32;20486;-55
2024/01/22 03:54:38;;;;;;;2.33;0.95;;;8.00;99.90;;;;;;7343547;32;20573;-55
2024/01/22 03:58:40;;;;;;;2.30;0.90;;;7.90;99.90;;;;;;7337786;32;20212;-57
2024/01/22 04:02:42;;;;;;;2.95;1.00;;;7.60;99.90;;;;;;7342136;32;20998;-56
2024/01/22 04:06:44;;;;;;;2.58;0.85;;;7.60;99.90;;;;;;7349634;32;20112;-56
2024/01/22 04:10:46;;;;;;;1.50;0.95;;;7.50;99.90;;;;;;7349837;32;20132;-56
2024/01/22 04:14:48;;;;;;;2.53;1.10;;;7.50;99.90;;;;;;7350994;32;20123;-56
2024/01/22 04:18:49;;;;;;;1.52;0.88;;;7.40;99.90;;;;;;7344817;32;20221;-56
2024/01/22 04:22:52;;;;;;;2.85;1.00;;;7.40;99.90;;;;;;7341765;32;20107;-56
2024/01/22 04:26:54;;;;;;;3.80;1.25;;;7.60;99.90;;;;;;7344684;32;20118;-57
2024/01/22 04:30:56;;;;;;;2.28;0.80;;;7.50;99.90;;;;;;7347754;32;20235;-56
2024/01/22 04:34:58;;;;;;;3.45;1.00;;;7.50;99.90;;;;;;7350598;32;20138;-57
2024/01/22 04:39:00;;;;;;;1.98;1.10;;;7.40;99.90;;;;;;7345021;32;20591;-56
2024/01/22 04:43:03;;;;;;;2.47;1.00;;;7.40;99.90;;;;;;7326665;32;20503;-56
2024/01/22 04:47:04;;;;;;;1.92;0.90;;;7.50;99.90;;;;;;7339795;32;20293;-56
2024/01/22 04:51:06;;;;;;;3.70;0.90;;;7.50;99.90;;;;;;7335474;32;20104;-57
2024/01/22 04:55:08;;;;;;;4.57;0.90;;;7.60;99.90;;;;;;7328749;32;20434;-55
2024/01/22 04:59:20;;;;;;;1.90;0.90;;;7.60;99.90;;;;;;7327694;32;20260;-56
2024/01/22 05:03:23;;;;;;;0.93;0.68;;;7.50;99.90;;;;;;7337179;32;20134;-56
2024/01/22 05:07:25;;;;;;;3.08;0.77;;;7.60;99.90;;;;;;7344731;32;20216;-56
2024/01/22 05:11:27;;;;;;;2.55;0.80;;;7.60;99.90;;;;;;7343143;32;20147;-56
2024/01/22 05:15:29;;;;;;;2.87;0.60;;;7.60;99.90;;;;;;7331862;32;20111;-56
2024/01/22 05:19:31;;;;;;;1.60;0.73;;;7.60;99.90;;;;;;7337015;32;20514;-56
2024/01/22 05:23:33;;;;;;;1.73;0.65;;;7.70;99.90;;;;;;7335841;32;20656;-57
2024/01/22 05:27:34;;;;;;;1.12;0.60;;;7.70;99.90;;;;;;7341088;32;20187;-57
2024/01/22 05:31:36;;;;;;;1.98;0.68;;;7.70;99.90;;;;;;7342804;32;20114;-57
2024/01/22 05:35:38;;;;;;;3.50;0.65;;;7.70;99.90;;;;;;7342158;32;20543;-56
2024/01/22 05:39:40;;;;;;;2.47;0.70;;;7.80;99.90;;;;;;7333644;32;20277;-56
2024/01/22 05:43:41;;;;;;;3.00;0.70;;;7.80;99.90;;;;;;7337621;32;20375;-55
2024/01/22 05:47:43;;;;;;;3.22;0.68;;;7.90;99.90;;;;;;7333597;32;20205;-57
2024/01/22 05:51:45;;;;;;;3.03;0.85;;;7.80;99.90;;;;;;7343212;32;20183;-56
2024/01/22 05:55:48;;;;;;;1.55;0.68;;;7.80;99.90;;;;;;7339624;32;20146;-55
2024/01/22 05:59:49;;;;;;;2.12;0.60;;;7.90;99.90;;;;;;7340906;32;20299;-56
2024/01/22 06:03:52;;;;;;;1.50;0.77;;;7.90;99.90;;;;;;7337963;32;20179;-55
2024/01/22 06:07:54;;;;;;;1.23;0.70;;;8.00;99.90;;;;;;7338024;32;20108;-56
2024/01/22 06:11:55;;;;;;;3.28;0.70;;;8.00;99.90;;;;;;7341680;32;20125;-55
2024/01/22 06:15:58;;;;;;;1.90;0.80;;;8.10;99.90;;;;;;7330731;32;20179;-56
2024/01/22 06:20:01;;;;;;;3.67;0.70;;;8.20;99.90;;;;;;7334300;32;20166;-56
2024/01/22 06:24:03;;;;;;;2.58;0.75;;;8.30;99.90;;;;;;7330499;32;20431;-56
2024/01/22 06:28:05;;;;;;;1.58;0.70;;;8.30;99.90;;;;;;7339793;32;20115;-56
2024/01/22 06:32:08;;;;;;;2.67;0.60;;;8.50;99.90;;;;;;7340459;32;20217;-56
2024/01/22 06:36:09;;;;;;;2.35;0.50;;;8.60;99.90;;;;;;7338646;32;20325;-57
2024/01/22 06:40:12;;;;;;;1.15;0.47;;;8.70;99.90;;;;;;7328278;32;20157;-57
2024/01/22 06:44:13;;;;;;;2.95;0.30;;;9.00;99.90;;;;;;7337222;32;20138;-55
2024/01/22 06:48:15;;;;;;;0.82;0.40;;;9.40;99.90;;;;;;7340709;32;20145;-56
2024/01/22 06:52:17;;;;;;;0.30;0.20;;;9.60;99.90;;;;;;7341320;32;20111;-56
2024/01/22 06:56:19;;;;;;;0.50;0.20;;;9.80;99.90;;;;;;7347655;32;20130;-56
2024/01/22 07:00:21;;;;;;;0.80;0.20;;;9.90;99.90;;;;;;7340307;32;20314;-57
2024/01/22 07:04:23;;;;;;;0.30;0.10;;;9.90;99.90;;;;;;7347098;32;20268;-56
2024/01/22 07:08:25;;;;;;;1.73;0.32;;;9.80;99.90;;;;;;7348086;32;20129;-57
2024/01/22 07:12:29;;;;;;;2.28;0.30;;;9.90;99.90;;;;;;7349964;32;20206;-56
2024/01/22 07:16:32;;;;;;;2.00;0.30;;;9.90;99.90;;;;;;7352838;32;20240;-56
2024/01/22 07:20:34;;;;;;;0.50;0.22;;;10.10;99.90;;;;;;7352186;32;20095;-56
2024/01/22 07:24:36;;;;;;;1.10;0.28;;;10.20;99.90;;;;;;7340205;32;20223;-56
2024/01/22 07:28:38;;;;;;;1.33;0.25;;;10.20;99.90;;;;;;7349536;32;20192;-58
2024/01/22 07:32:42;;;;;;;0.98;0.40;;;10.40;99.90;;;;;;7345468;32;20184;-59
2024/01/22 07:36:44;;;;;;;0.82;0.40;;;10.40;99.90;;;;;;7342546;32;20180;-58
2024/01/22 07:40:46;;;;;;;1.35;0.43;;;10.60;99.90;;;;;;7337867;32;20115;-58
2024/01/22 07:44:48;;;;;;;0.88;0.32;;;10.70;99.90;;;;;;7341148;32;20665;-58
2024/01/22 07:48:49;;;;;;;0.93;0.40;;;10.80;99.90;;;;;;7341573;32;20130;-58
2024/01/22 07:52:51;;;;;;;1.05;0.50;;;10.80;99.90;;;;;;7341722;32;20263;-58
2024/01/22 07:56:53;;;;;;;2.50;0.30;;;10.90;99.90;;;;;;7340994;32;20498;-59
2024/01/22 08:00:55;;;;;;;1.40;0.30;;;11.00;99.90;;;;;;7337097;32;20111;-58
2024/01/22 08:04:57;;;;;;;0.40;0.25;;;10.90;99.90;;;;;;7341628;32;20663;-60
2024/01/22 08:08:59;;;;;;;0.30;0.20;;;10.80;99.90;;;;;;7341280;32;20099;-59
2024/01/22 08:13:02;;;;;;;0.62;0.28;;;10.80;99.90;;;;;;7344373;32;20546;-58
2024/01/22 08:17:04;;;;;;;1.80;0.30;;;10.70;99.90;;;;;;7337973;32;20192;-60
2024/01/22 08:21:06;;;;;;;0.60;0.37;;;10.70;99.90;;;;;;7341898;32;20163;-59
2024/01/22 08:25:08;;;;;;;0.60;0.20;;;10.70;99.90;;;;;;7347385;32;20107;-61
2024/01/22 08:29:10;;;;;;;1.10;0.55;;;10.70;99.90;;;;;;7343835;32;20098;-57
2024/01/22 08:33:12;;;;;;;0.62;0.22;;;10.70;99.90;;;;;;7342648;32;20190;-60
2024/01/22 08:37:14;;;;;;;0.40;0.20;;;10.70;99.90;;;;;;7340900;32;20107;-58
2024/01/22 08:41:15;;;;;;;0.62;0.30;;;10.70;99.90;;;;;;7339721;32;20564;-59
2024/01/22 08:45:18;;;;;;;0.60;0.20;;;10.70;99.90;;;;;;7344916;32;20386;-60
2024/01/22 08:49:20;;;;;;;0.68;0.30;;;10.70;99.90;;;;;;7335376;32;20262;-59
2024/01/22 08:53:21;;;;;;;1.37;0.30;;;10.70;99.90;;;;;;7343610;32;20317;-59
2024/01/22 08:57:23;;;;;;;1.05;0.30;;;10.70;99.90;;;;;;7338654;32;20237;-59
2024/01/22 09:01:25;;;;;;;0.73;0.30;;;10.70;99.90;;;;;;7338912;32;20170;-58
2024/01/22 09:05:27;;;;;;;1.42;0.60;;;10.70;99.90;;;;;;7343163;32;20230;-58
2024/01/22 09:09:29;;;;;;;3.40;0.40;;;10.70;99.90;;;;;;7344103;32;20347;-57
2024/01/22 09:13:31;;;;;;;1.05;0.30;;;10.70;99.90;;;;;;7338831;32;20288;-57
2024/01/22 09:17:33;;;;;;;1.23;0.57;;;10.70;99.90;;;;;;7341145;32;20637;-57
2024/01/22 09:21:35;;;;;;;2.47;0.40;;;10.70;99.90;;;;;;7345969;32;20131;-58
2024/01/22 09:25:39;;;;;;;1.27;0.30;;;10.70;99.90;;;;;;7345147;32;20123;-58
2024/01/22 09:29:41;;;;;;;1.67;0.40;;;10.70;99.90;;;;;;7341885;32;20537;-58
2024/01/22 09:33:44;;;;;;;2.40;0.60;;;10.80;99.90;;;;;;7338131;32;20129;-58
2024/01/22 09:37:46;;;;;;;2.78;0.52;;;10.90;99.90;;;;;;7341219;32;20525;-58
2024/01/22 09:41:51;;;;;;;3.75;0.60;;;10.90;99.90;;;;;;7343454;32;20674;-56
2024/01/22 09:45:54;;;;;;;3.95;0.60;;;11.00;99.90;;;;;;7343435;32;20133;-56
2024/01/22 09:49:56;;;;;;;1.98;0.52;;;11.10;99.90;;;;;;7345220;32;20141;-58
2024/01/22 09:54:04;;;;;;;3.15;0.52;;;11.20;99.90;;;;;;7339463;32;20222;-57
2024/01/22 09:58:09;;;;;;;4.00;1.00;;;11.30;99.90;;;;;;7339360;32;20107;-56
2024/01/22 10:02:18;;;;;;;4.10;0.90;;;11.30;99.90;;;;;;7338042;32;20126;-58
2024/01/22 10:06:21;;;;;;;5.35;0.70;;;11.40;99.90;;;;;;7340971;32;20133;-58
2024/01/22 10:10:23;;;;;;;4.18;0.95;;;11.50;99.90;;;;;;7337315;32;20255;-59
2024/01/22 10:14:37;;;;;;;5.43;0.98;;;11.50;99.90;;;;;;7338921;32;20313;-57
2024/01/22 10:18:54;;;;;;;4.57;0.90;;;11.50;99.90;;;;;;7334605;32;20513;-57
2024/01/22 10:23:00;;;;;;;4.37;0.85;;;11.60;99.90;;;;;;7341656;32;20118;-59
2024/01/22 10:27:13;;;;;;;4.07;1.00;;;11.60;99.90;;;;;;7344170;32;20198;-58
2024/01/22 10:31:15;;;;;;;4.65;0.70;;;11.60;99.90;;;;;;7337480;32;20155;-57
2024/01/22 10:35:29;;;;;;;7.62;1.45;;;11.70;99.90;;;;;;7341815;32;20126;-58
2024/01/22 10:39:30;;;;;;;6.25;1.33;;;11.60;99.90;;;;;;7340501;32;20266;-58
2024/01/22 10:43:33;;;;;;;4.82;0.82;;;11.70;99.90;;;;;;7340738;32;20202;-57
2024/01/22 10:47:35;;;;;;;7.32;0.90;;;11.70;99.90;;;;;;7341254;32;20594;-58
2024/01/22 10:51:39;;;;;;;3.20;0.80;;;11.70;99.90;;;;;;7325356;32;20861;-59
2024/01/22 10:55:41;;;;;;;2.40;0.90;;;11.80;99.90;;;;;;7342997;32;20122;-60
2024/01/22 10:59:49;;;;;;;6.30;0.70;;;11.90;99.90;;;;;;7327876;32;20187;-59
2024/01/22 11:03:53;;;;;;;4.07;0.93;;;11.90;99.90;;;;;;7319879;32;20285;-60
2024/01/22 11:07:59;;;;;;;5.37;1.30;;;11.90;99.90;;;;;;7329635;32;20186;-59
2024/01/22 11:12:04;;;;;;;2.87;0.60;;;11.80;99.90;;;;;;7335603;32;20391;-58
2024/01/22 11:16:06;;;;;;;4.30;0.85;;;11.80;99.90;;;;;;7335650;32;20796;-59
2024/01/22 11:20:18;;;;;;;3.15;0.55;;;11.80;99.90;;;;;;7338144;32;20194;-60
2024/01/22 11:24:22;;;;;;;4.12;0.50;;;11.80;99.90;;;;;;7344249;32;20121;-59
2024/01/22 11:28:24;;;;;;;3.85;0.45;;;11.70;99.90;;;;;;7340043;32;20161;-58
2024/01/22 11:32:27;;;;;;;5.50;1.00;;;11.60;99.90;;;;;;7345503;32;20095;-58
2024/01/22 11:36:56;;;;;;;4.05;0.90;;;11.60;99.90;;;;;;7345789;32;20258;-57
2024/01/22 11:40:58;;;;;;;3.72;0.60;;;11.60;99.90;;;;;;7344511;32;20095;-59
2024/01/22 11:45:13;;;;;;;3.80;0.47;;;11.60;99.90;;;;;;7344278;32;20465;-59
2024/01/22 11:49:16;;;;;;;3.95;0.60;;;11.60;99.90;;;;;;7351561;32;20099;-57
2024/01/22 11:53:18;;;;;;;3.60;0.65;;;11.60;99.90;;;;;;7346380;32;20117;-59
2024/01/22 11:57:20;;;;;;;4.82;0.80;;;11.60;99.90;;;;;;7346899;32;20191;-57
2024/01/22 12:01:22;;;;;;;6.03;0.80;;;11.40;99.90;;;;;;7348603;32;20190;-57
2024/01/22 12:05:24;;;;;;;1.95;0.60;;;11.10;99.90;;;;;;7351256;32;20128;-59
2024/01/22 12:09:36;;;;;;;2.42;0.32;;;10.90;99.90;;;;;;7341203;32;20179;-56
2024/01/22 12:13:40;;;;;;;4.20;0.70;;;10.70;99.90;;;;;;7337009;32;20391;-57
2024/01/22 12:17:43;;;;;;;8.10;0.93;;;10.60;99.90;;;;;;7342708;32;20202;-57
2024/01/22 12:21:45;;;;;;;4.05;0.60;;;10.50;99.90;;;;;;7330478;32;20095;-60
2024/01/22 12:25:48;;;;;;;3.90;0.55;;;10.60;99.90;;;;;;7333750;32;24399;-58
2024/01/22 12:29:59;;;;;;;4.87;0.70;;;10.60;99.90;;;;;;7335717;32;20174;-60
2024/01/22 12:34:11;;;;;;;8.27;1.25;;;10.80;99.90;;;;;;7337335;32;20486;-58
2024/01/22 12:38:13;;;;;;;5.28;0.75;;;11.00;99.90;;;;;;7334179;32;20300;-59
2024/01/22 12:42:19;;;;;;;5.05;0.70;;;11.10;99.90;;;;;;7334706;32;20182;-59
2024/01/22 12:46:21;;;;;;;4.15;0.90;;;11.10;99.90;;;;;;7339514;32;20231;-59
2024/01/22 12:50:24;;;;;;;7.72;1.30;;;11.00;99.90;;;;;;7335480;32;20186;-58
2024/01/22 12:54:26;;;;;;;8.43;1.20;;;11.00;99.90;;;;;;7334321;32;20308;-58
2024/01/22 12:58:28;;;;;;;8.57;1.50;;;11.00;99.90;;;;;;7327738;32;21131;-60
2024/01/22 13:02:30;;;;;;;9.65;1.58;;;11.00;99.90;;;;;;7329689;32;20193;-59
2024/01/22 13:06:32;;;;;;;10.75;1.37;;;11.00;99.90;;;;;;7336653;32;20455;-59
2024/01/22 13:10:36;;;;;;;6.18;1.17;;;11.00;99.90;;;;;;7335014;32;20195;-59
2024/01/22 13:14:38;;;;;;;2.35;0.60;;;10.80;99.90;;;;;;7331278;32;20345;-59
2024/01/22 13:18:41;;;;;;;6.43;0.52;;;10.40;99.90;;;;;;7334817;32;20601;-59
2024/01/22 13:22:44;;;;;;;8.32;1.20;;;10.10;99.90;;;;;;7332602;32;20533;-59
2024/01/22 13:26:47;;;;;;;8.60;1.30;;;10.00;99.90;;;;;;7339736;32;20239;-63
2024/01/22 13:30:49;;;;;;;12.20;1.77;;;10.00;99.90;;;;;;7332611;32;20133;-64
2024/01/22 13:34:51;;;;;;;9.07;1.50;;;10.20;99.90;;;;;;7344004;32;20214;-64
2024/01/22 13:38:53;;;;;;;9.68;2.37;;;10.20;99.90;;;;;;7338222;32;20256;-64
2024/01/22 13:42:55;;;;;;;8.80;1.87;;;10.20;99.90;;;;;;7339478;32;20165;-64
2024/01/22 13:46:57;;;;;;;12.13;2.53;;;10.30;99.90;;;;;;7339957;32;20111;-64
2024/01/22 13:50:58;;;;;;;12.40;1.77;;;10.40;99.90;;;;;;7326994;32;20234;-59
2024/01/22 13:55:00;;;;;;;14.70;2.40;;;10.40;99.90;;;;;;7339326;32;20170;-59
2024/01/22 13:59:03;;;;;;;14.15;2.00;;;10.40;99.90;;;;;;7335620;32;20143;-58
2024/01/22 14:03:05;;;;;;;18.95;3.42;;;10.30;99.90;;;;;;7334699;32;20433;-59
2024/01/22 14:07:07;;;;;;;16.90;2.87;;;10.30;99.90;;;;;;7325710;32;20284;-59
2024/01/22 14:11:09;;;;;;;16.73;2.95;;;10.30;99.90;;;;;;7337532;32;20233;-60
2024/01/22 14:15:11;;;;;;;15.60;2.83;;;10.50;99.90;;;;;;7334556;32;20178;-59
2024/01/22 14:19:13;;;;;;;14.82;2.78;;;10.60;99.90;;;;;;7332222;32;20521;-58
2024/01/22 14:23:16;;;;;;;21.25;2.58;;;10.60;99.90;;;;;;7328618;32;20170;-58
2024/01/22 14:27:18;;;;;;;17.58;2.95;;;10.80;99.90;;;;;;7325333;32;43551;-59
2024/01/22 14:31:21;;;;;;;20.12;2.87;;;10.80;99.90;;;;;;7324183;32;20220;-57
2024/01/22 14:35:25;;;;;;;13.35;2.97;;;10.80;99.90;;;;;;7327950;32;20265;-58
2024/01/22 14:39:27;;;;;;;14.85;2.85;;;10.70;99.90;;;;;;7330114;32;20186;-57
2024/01/22 14:43:33;;;;;;;11.35;2.35;;;10.50;99.90;;;;;;7331735;32;20561;-57
2024/01/22 14:47:35;;;;;;;18.02;2.75;;;10.40;99.90;;;;;;7337374;32;20613;-57
2024/01/22 14:51:42;;;;;;;19.45;3.03;;;10.50;99.90;;;;;;7332713;32;20879;-59
2024/01/22 14:55:44;;;;;;;16.00;2.67;;;10.40;99.90;;;;;;7330476;32;20313;-59
2024/01/22 14:59:45;;;;;;;16.90;2.60;;;10.30;99.90;;;;;;7329679;32;20217;-58
2024/01/22 15:03:48;;;;;;;14.20;2.25;;;10.20;99.90;;;;;;7333949;32;20922;-59
2024/01/22 15:07:51;;;;;;;16.15;2.62;;;10.10;99.90;;;;;;7335025;32;20781;-58
2024/01/22 15:11:52;;;;;;;18.65;2.50;;;10.10;99.90;;;;;;7343118;32;20600;-57
2024/01/22 15:15:54;;;;;;;13.50;2.22;;;10.00;99.90;;;;;;7340740;32;20272;-58
2024/01/22 15:19:58;;;;;;;15.18;2.42;;;9.90;99.90;;;;;;7340508;32;20388;-57
2024/01/22 15:24:00;;;;;;;19.67;2.37;;;9.90;99.90;;;;;;7341549;32;20195;-58
2024/01/22 15:28:02;;;;;;;15.80;2.45;;;9.80;99.90;;;;;;7336789;32;20537;-58
2024/01/22 15:32:05;;;;;;;19.48;3.10;;;9.80;99.90;;;;;;7342643;32;20214;-58
2024/01/22 15:36:09;;;;;;;13.93;2.37;;;9.70;99.90;;;;;;7346430;32;20777;-59
2024/01/22 15:40:12;;;;;;;17.83;2.47;;;9.70;99.90;;;;;;7341120;32;20136;-58
2024/01/22 15:44:14;;;;;;;15.95;3.05;;;9.70;99.90;;;;;;7344470;32;20792;-58
2024/01/22 15:48:16;;;;;;;17.65;2.90;;;9.70;99.90;;;;;;7350263;32;20130;-57
2024/01/22 15:52:18;;;;;;;15.05;2.97;;;9.70;99.90;;;;;;7347858;32;20104;-60
2024/01/22 15:56:20;;;;;;;17.52;3.30;;;9.60;99.90;;;;;;7348200;32;20114;-59
2024/01/22 16:00:22;;;;;;;26.20;3.53;;;9.50;99.90;;;;;;7348237;32;20112;-59
2024/01/22 16:04:24;;;;;;;18.33;2.70;;;9.40;99.90;;;;;;7346071;32;20600;-59
2024/01/22 16:08:26;;;;;;;18.00;2.83;;;9.30;99.90;;;;;;7344114;32;20167;-57
2024/01/22 16:12:28;;;;;;;20.40;3.97;;;9.20;99.90;;;;;;7348445;32;20195;-58
2024/01/22 16:16:30;;;;;;;16.17;2.72;;;9.10;99.90;;;;;;7348673;32;20161;-58
2024/01/22 16:20:32;;;;;;;19.58;2.95;;;9.00;99.90;;;;;;7347861;32;20189;-58
2024/01/22 16:24:33;;;;;;;21.40;3.03;;;9.00;99.90;;;;;;7334426;32;20173;-56
2024/01/22 16:28:36;;;;;;;19.20;2.78;;;9.00;99.90;;;;;;7336915;32;20215;-56
2024/01/22 16:32:38;;;;;;;22.13;3.92;;;9.00;99.90;;;;;;7340360;32;20155;-56
2024/01/22 16:36:42;;;;;;;13.93;2.90;;;9.00;99.90;;;;;;7338702;32;20167;-58
2024/01/22 16:40:44;;;;;;;24.17;4.68;;;9.00;99.90;;;;;;7342271;32;20876;-57
2024/01/22 16:44:45;;;;;;;25.65;3.30;;;9.00;99.90;;;;;;7336180;32;20158;-56
2024/01/22 16:48:47;;;;;;;13.15;3.30;;;8.90;99.90;;;;;;7339880;32;20173;-57
2024/01/22 16:52:53;;;;;;;24.23;3.90;;;8.90;99.90;;;;;;7330466;32;20139;-57
2024/01/22 16:56:56;;;;;;;18.50;3.17;;;8.80;99.90;;;;;;7342113;32;20163;-56
2024/01/22 17:00:58;;;;;;;20.50;3.75;;;8.60;99.90;;;;;;7331559;32;20134;-57
2024/01/22 17:05:00;;;;;;;16.42;2.85;;;8.70;99.90;;;;;;7345859;32;20829;-57
2024/01/22 17:09:02;;;;;;;21.98;3.62;;;8.60;99.90;;;;;;7343494;32;20127;-56
2024/01/22 17:13:04;;;;;;;22.42;3.47;;;8.60;99.90;;;;;;7344638;32;20230;-57
2024/01/22 17:17:06;;;;;;;15.35;2.60;;;8.70;99.90;;;;;;7340663;32;20561;-55
2024/01/22 17:21:08;;;;;;;19.77;2.95;;;8.60;99.90;;;;;;7342295;32;20738;-58
2024/01/22 17:25:10;;;;;;;18.12;3.25;;;8.50;99.90;;;;;;7335302;32;20495;-58
2024/01/22 17:29:13;;;;;;;21.65;3.28;;;8.50;99.90;;;;;;7336104;32;20180;-56
2024/01/22 17:33:16;;;;;;;18.75;4.10;;;8.50;99.90;;;;;;7344273;32;20265;-57
2024/01/22 17:37:18;;;;;;;28.65;5.55;;;8.50;99.90;;;;;;7337074;32;20156;-56
2024/01/22 17:41:20;;;;;;;28.02;3.90;;;8.60;99.90;;;;;;7339643;32;20248;-58
2024/01/22 17:45:22;;;;;;;21.27;3.40;;;8.60;99.90;;;;;;7340206;32;20112;-56
2024/01/22 17:49:24;;;;;;;18.02;4.07;;;8.50;99.90;;;;;;7339162;32;20308;-57
2024/01/22 17:53:26;;;;;;;23.65;4.35;;;8.50;99.90;;;;;;7335685;32;20148;-56
2024/01/22 17:57:28;;;;;;;30.55;5.90;;;8.40;99.90;;;;;;7326753;32;20912;-56
2024/01/22 18:01:30;;;;;;;21.95;3.70;;;8.40;99.90;;;;;;7323234;32;20442;-56
2024/01/22 18:05:31;;;;;;;23.33;5.65;;;8.40;99.90;;;;;;7339076;32;20632;-56
2024/01/22 18:09:33;;;;;;;18.23;3.08;;;8.50;99.90;;;;;;7337150;32;20361;-56
2024/01/22 18:13:35;;;;;;;19.50;4.45;;;8.50;99.90;;;;;;7334931;32;20205;-55
2024/01/22 18:17:36;;;;;;;22.02;4.07;;;8.60;99.90;;;;;;7338391;32;20210;-57
2024/01/22 18:21:39;;;;;;;21.77;4.25;;;8.50;99.90;;;;;;7337196;32;20202;-57
2024/01/22 18:25:40;;;;;;;21.37;3.85;;;8.50;99.90;;;;;;7334786;32;20323;-56
2024/01/22 18:29:43;;;;;;;22.48;3.28;;;8.60;99.90;;;;;;7330328;32;20190;-58
2024/01/22 18:33:44;;;;;;;11.23;2.22;;;8.50;99.90;;;;;;7333961;32;20513;-56
2024/01/22 18:37:47;;;;;;;18.62;3.25;;;8.50;99.90;;;;;;7333667;32;20272;-56
2024/01/22 18:41:49;;;;;;;19.75;3.25;;;8.50;99.90;;;;;;7331799;32;20108;-57
2024/01/22 18:45:50;;;;;;;20.60;2.97;;;8.40;99.90;;;;;;7340720;32;20155;-56
2024/01/22 18:49:52;;;;;;;15.27;2.50;;;8.60;99.90;;;;;;7349508;32;20137;-57
2024/01/22 18:53:54;;;;;;;15.27;2.40;;;8.60;99.90;;;;;;7353798;32;20119;-55
2024/01/22 18:57:56;;;;;;;12.52;2.30;;;8.60;99.90;;;;;;7343493;32;20115;-56
2024/01/22 19:01:58;;;;;;;14.50;3.20;;;8.60;99.90;;;;;;7342077;32;20158;-58
2024/01/22 19:06:01;;;;;;;18.10;2.95;;;8.60;99.90;;;;;;7347857;32;20175;-56
2024/01/22 19:10:03;;;;;;;19.20;2.97;;;8.50;99.90;;;;;;7342290;32;20140;-57
2024/01/22 19:14:05;;;;;;;20.60;3.17;;;8.50;99.90;;;;;;7348064;32;20218;-56
2024/01/22 19:18:07;;;;;;;16.65;3.67;;;8.50;99.90;;;;;;7347417;32;20251;-56
2024/01/22 19:22:09;;;;;;;18.45;2.83;;;8.50;99.90;;;;;;7346274;32;20111;-57
2024/01/22 19:26:12;;;;;;;17.98;3.60;;;8.40;99.90;;;;;;7339992;32;20123;-58
2024/01/22 19:30:13;;;;;;;16.02;3.53;;;8.40;99.90;;;;;;7340080;32;21029;-56
2024/01/22 19:34:15;;;;;;;20.23;4.18;;;8.40;99.90;;;;;;7300280;32;20284;-57
2024/01/22 19:38:19;;;;;;;21.80;3.83;;;8.40;99.90;;;;;;7271522;32;20349;-56
2024/01/22 19:42:20;;;;;;;19.48;3.37;;;8.50;99.90;;;;;;7266374;32;20288;-57
2024/01/22 19:46:22;;;;;;;23.40;4.82;;;8.50;99.90;;;;;;7300011;32;20210;-55
2024/01/22 19:50:25;;;;;;;22.48;5.55;;;8.50;99.90;;;;;;7348139;32;20433;-56
2024/01/22 19:54:27;;;;;;;20.58;3.37;;;8.50;99.90;;;;;;7343174;32;20134;-56
2024/01/22 19:58:28;;;;;;;22.83;2.92;;;8.40;99.90;;;;;;7345736;32;20129;-57
2024/01/22 20:02:31;;;;;;;25.02;3.72;;;8.50;99.90;;;;;;7341887;32;20127;-57
2024/01/22 20:06:32;;;;;;;20.35;3.40;;;8.50;99.90;;;;;;7345360;32;20174;-55
2024/01/22 20:10:34;;;;;;;21.10;3.42;;;8.50;99.90;;;;;;7339664;32;20159;-57
2024/01/22 20:14:36;;;;;;;17.90;3.22;;;8.50;99.90;;;;;;7343185;32;20298;-56
2024/01/22 20:18:38;;;;;;;22.87;5.85;;;8.50;99.90;;;;;;7340083;32;20175;-57
2024/01/22 20:22:40;;;;;;;18.83;3.60;;;8.50;99.90;;;;;;7348693;32;20153;-56
2024/01/22 20:26:45;;;;;;;25.20;6.70;;;8.50;99.90;;;;;;7341316;32;20263;-56
2024/01/22 20:30:46;;;;;;;19.95;4.45;;;8.50;99.90;;;;;;7339827;32;21906;-56
2024/01/22 20:34:48;;;;;;;18.70;3.05;;;8.50;99.90;;;;;;7346595;32;20545;-56
2024/01/22 20:38:50;;;;;;;20.45;3.72;;;8.50;99.90;;;;;;7342222;32;20153;-56
2024/01/22 20:42:52;;;;;;;20.67;3.95;;;8.40;99.90;;;;;;7338576;32;20126;-57
2024/01/22 20:46:54;;;;;;;16.20;3.35;;;8.50;99.90;;;;;;7341173;32;20135;-56
2024/01/22 20:50:57;;;;;;;28.35;7.72;;;8.40;99.90;;;;;;7347381;32;20205;-57
2024/01/22 20:54:58;;;;;;;16.35;3.95;;;8.30;99.90;;;;;;7337758;32;20540;-58
2024/01/22 20:59:00;;;;;;;15.18;2.92;;;8.30;99.90;;;;;;7344287;32;20119;-56
2024/01/22 21:03:02;;;;;;;16.58;2.37;;;8.30;99.90;;;;;;7339244;32;20683;-58
2024/01/22 21:07:04;;;;;;;14.52;2.10;;;8.40;99.90;;;;;;7343247;32;20111;-56